O Kean, Arkansas
Current Conditions -  °F | °C
As of 5:15 AM on Monday 22 Dec 2014 (Local Time) from KARG Reporting Station
Overcast Overcast  
Wind Chill: 41°   Ceiling: 500
Heat Index: 46°   Visibility: 5mi
Dew Point: 41°   Wind: 13mph
Humidity: 81%   Direction: 170°S
Pressure: 29.8"   Gusts: NA
Location:  36.1919°N, 90.8295°W
Report Text: KARG 221115Z AUTO 17011KT 5SM OVC005 08/05 A2980 RMK AO1
Loading
Personal Weather Stations






























Interactive Weather Map New forecast layout! Learn more

10-Day Weather Forecast

Advertisements
Track Severe Weather on mobile